Time;durP1;ratioP1;P1;durP2;ratioP2;P2;SDS_P1;SDS_P2;PMS_P1;PMS_P2;Temp;Humidity;BMP_temperature;BMP_pressure;BME280_temperature;BME280_humidity;BME280_pressure;Samples;Min_cycle;Max_cycle;Signal;HPM_P1;HPM_P2
2022/12/10 00:00:42;;;;;;;692.17;640.78;;;-2.20;99.90;;;;;;5033158;28;20285;-85
2022/12/10 00:03:09;;;;;;;701.67;650.50;;;-2.20;99.90;;;;;;5033301;28;20208;-84
2022/12/10 00:05:36;;;;;;;651.58;604.42;;;-2.20;99.90;;;;;;5033946;28;20194;-84
2022/12/10 00:08:04;;;;;;;633.20;585.95;;;-2.40;99.90;;;;;;5033318;28;20209;-84
2022/12/10 00:10:31;;;;;;;640.45;593.03;;;-2.50;99.90;;;;;;5032829;28;20210;-84
2022/12/10 00:12:58;;;;;;;669.35;619.50;;;-2.60;99.90;;;;;;5032938;28;20213;-84
2022/12/10 00:15:24;;;;;;;660.90;610.80;;;-2.70;99.90;;;;;;5033445;28;20206;-84
2022/12/10 00:17:51;;;;;;;665.97;616.90;;;-2.70;99.90;;;;;;5032623;28;20198;-84
2022/12/10 00:20:18;;;;;;;656.88;606.15;;;-2.50;99.90;;;;;;5033269;28;20209;-84
2022/12/10 00:22:45;;;;;;;653.33;603.28;;;-2.70;99.90;;;;;;5031938;28;20228;-84
2022/12/10 00:25:13;;;;;;;661.60;611.58;;;-2.70;99.90;;;;;;5032250;28;20194;-83
2022/12/10 00:27:39;;;;;;;661.97;612.20;;;-2.70;99.90;;;;;;5032074;28;20208;-85
2022/12/10 00:30:07;;;;;;;660.17;609.03;;;-2.70;99.90;;;;;;5032153;28;20208;-84
2022/12/10 00:32:34;;;;;;;647.20;597.20;;;-2.70;99.90;;;;;;5032249;28;20230;-83
2022/12/10 00:35:00;;;;;;;638.63;589.13;;;-2.80;99.90;;;;;;5032271;28;20210;-84
2022/12/10 00:37:27;;;;;;;643.53;593.42;;;-2.90;99.90;;;;;;5032627;28;20202;-84
2022/12/10 00:39:54;;;;;;;645.13;596.30;;;-2.90;99.90;;;;;;5032466;28;20206;-84
2022/12/10 00:42:22;;;;;;;643.58;592.70;;;-2.90;99.90;;;;;;5031650;28;20224;-85
2022/12/10 00:44:48;;;;;;;655.13;602.22;;;-3.00;99.90;;;;;;5031904;28;20202;-85
2022/12/10 00:47:15;;;;;;;651.45;600.85;;;-3.00;99.90;;;;;;5032506;28;20203;-84
2022/12/10 00:49:42;;;;;;;639.22;590.47;;;-3.00;99.90;;;;;;5032042;28;20202;-84
2022/12/10 00:52:09;;;;;;;650.78;600.38;;;-3.10;99.90;;;;;;5030899;28;20211;-85
2022/12/10 00:54:35;;;;;;;648.33;598.47;;;-3.00;99.90;;;;;;5031893;28;20205;-84
2022/12/10 00:57:02;;;;;;;633.28;584.88;;;-2.90;99.90;;;;;;5031615;28;20203;-84
2022/12/10 00:59:30;;;;;;;635.55;585.03;;;-3.10;99.90;;;;;;5032112;28;20289;-84
2022/12/10 01:01:57;;;;;;;649.35;599.22;;;-3.10;99.90;;;;;;5031782;28;20231;-83
2022/12/10 01:04:24;;;;;;;628.17;579.50;;;-3.10;99.90;;;;;;5031772;28;20199;-83
2022/12/10 01:06:52;;;;;;;630.42;581.97;;;-3.00;99.90;;;;;;5032171;28;20202;-84
2022/12/10 01:09:22;;;;;;;623.17;573.08;;;-3.10;99.90;;;;;;5031201;28;20590;-83
2022/12/10 01:11:50;;;;;;;594.83;546.72;;;-3.20;99.90;;;;;;5032009;28;20214;-85
2022/12/10 01:14:20;;;;;;;632.17;582.75;;;-3.20;99.90;;;;;;5032265;28;20209;-83
2022/12/10 01:16:48;;;;;;;630.33;581.58;;;-3.30;99.90;;;;;;5030669;28;20208;-84
2022/12/10 01:19:15;;;;;;;631.25;581.22;;;-3.20;99.90;;;;;;5031319;28;20202;-84
2022/12/10 01:21:41;;;;;;;624.47;574.95;;;-3.20;99.90;;;;;;5030865;28;20222;-84
2022/12/10 01:24:09;;;;;;;637.58;587.35;;;-3.20;99.90;;;;;;5031809;28;20198;-84
2022/12/10 01:26:36;;;;;;;631.50;581.58;;;-3.20;99.90;;;;;;5030942;28;20198;-84
2022/12/10 01:29:04;;;;;;;621.05;569.85;;;-3.30;99.90;;;;;;5029455;28;20205;-84
2022/12/10 01:31:33;;;;;;;643.20;591.05;;;-3.30;99.90;;;;;;5029356;28;20210;-85
2022/12/10 01:34:03;;;;;;;672.28;620.28;;;-3.10;99.90;;;;;;5030295;28;20210;-84
2022/12/10 01:36:32;;;;;;;668.03;618.95;;;-2.90;99.90;;;;;;5030198;28;20208;-84
2022/12/10 01:38:59;;;;;;;648.50;597.92;;;-2.80;99.90;;;;;;5029703;28;20218;-84
2022/12/10 01:41:28;;;;;;;650.08;599.55;;;-3.10;99.90;;;;;;5030275;28;20590;-84
2022/12/10 01:43:58;;;;;;;676.05;623.85;;;-3.20;99.90;;;;;;5031464;28;20198;-84
2022/12/10 01:46:27;;;;;;;644.42;592.53;;;-3.30;99.90;;;;;;5031540;28;20198;-84
2022/12/10 01:48:54;;;;;;;642.47;592.58;;;-3.30;99.90;;;;;;5032156;28;20210;-84
2022/12/10 01:51:24;;;;;;;646.70;596.10;;;-3.30;99.90;;;;;;5030763;28;20215;-84
2022/12/10 01:53:50;;;;;;;651.55;600.55;;;-3.30;99.90;;;;;;5030826;28;20205;-84
2022/12/10 01:56:19;;;;;;;642.10;590.92;;;-3.30;99.90;;;;;;5031655;28;20202;-84
2022/12/10 01:58:47;;;;;;;621.35;571.70;;;-3.20;99.90;;;;;;5031518;28;20201;-85
2022/12/10 02:01:21;;;;;;;634.85;580.70;;;-3.30;99.90;;;;;;5030729;28;20226;-84
2022/12/10 02:04:01;;;;;;;630.17;579.00;;;-3.40;99.90;;;;;;5030615;28;20210;-84
2022/12/10 02:06:39;;;;;;;643.72;589.45;;;-3.30;99.90;;;;;;5030801;28;20225;-84
2022/12/10 02:09:17;;;;;;;622.13;571.08;;;-3.30;99.90;;;;;;5030339;28;20194;-84
2022/12/10 02:11:50;;;;;;;606.40;556.65;;;-3.30;99.90;;;;;;5029305;28;20218;-85
2022/12/10 02:14:21;;;;;;;611.20;562.88;;;-3.30;99.90;;;;;;5029078;28;20198;-84
2022/12/10 02:16:55;;;;;;;611.65;561.95;;;-3.40;99.90;;;;;;5029280;28;20205;-84
2022/12/10 02:19:29;;;;;;;604.35;555.05;;;-3.40;99.90;;;;;;5029231;28;20237;-84
2022/12/10 02:21:58;;;;;;;606.95;555.92;;;-3.40;99.90;;;;;;5029848;28;20218;-84
2022/12/10 02:24:29;;;;;;;604.53;556.17;;;-3.40;99.90;;;;;;5030072;28;20679;-84
2022/12/10 02:27:04;;;;;;;626.92;575.15;;;-3.40;99.90;;;;;;5029732;28;20202;-84
2022/12/10 02:29:33;;;;;;;610.17;560.28;;;-3.40;99.90;;;;;;5030041;28;20208;-84
2022/12/10 02:32:04;;;;;;;633.08;580.63;;;-3.40;99.90;;;;;;5029111;28;20284;-84
2022/12/10 02:34:37;;;;;;;656.20;602.17;;;-3.30;99.90;;;;;;5028764;28;20206;-83
2022/12/10 02:37:09;;;;;;;658.03;604.08;;;-3.10;99.90;;;;;;5027597;28;20198;-84
2022/12/10 02:39:40;;;;;;;674.92;618.83;;;-3.00;99.90;;;;;;5028613;28;20209;-84
2022/12/10 02:42:09;;;;;;;696.17;639.65;;;-2.80;99.90;;;;;;5027776;28;20222;-84
2022/12/10 02:44:41;;;;;;;710.08;651.85;;;-2.60;99.90;;;;;;5028352;28;20648;-84
2022/12/10 02:47:09;;;;;;;711.08;651.65;;;-2.40;99.90;;;;;;5028401;28;20198;-84
2022/12/10 02:49:38;;;;;;;713.25;654.80;;;-2.30;99.90;;;;;;5026899;28;20205;-84
2022/12/10 02:52:09;;;;;;;726.40;667.03;;;-2.20;99.90;;;;;;5025814;28;20218;-84
2022/12/10 02:54:42;;;;;;;749.63;688.53;;;-2.10;99.90;;;;;;5025238;28;20200;-84
2022/12/10 02:57:16;;;;;;;738.35;676.38;;;-2.00;99.90;;;;;;5024141;28;20578;-84
2022/12/10 02:59:59;;;;;;;754.85;690.53;;;-1.80;99.90;;;;;;5020451;28;20573;-84
2022/12/10 03:02:34;;;;;;;763.65;700.42;;;-1.60;99.90;;;;;;5020991;28;20218;-85
2022/12/10 03:05:06;;;;;;;774.87;710.77;;;-1.50;99.90;;;;;;5020894;28;20201;-84
2022/12/10 03:07:38;;;;;;;766.95;700.83;;;-1.40;99.90;;;;;;5019757;28;20464;-84
2022/12/10 03:10:11;;;;;;;762.72;697.03;;;-1.30;99.90;;;;;;5015926;28;20209;-84
2022/12/10 03:12:44;;;;;;;763.75;697.55;;;-1.20;99.90;;;;;;5016289;28;20226;-85
2022/12/10 03:15:14;;;;;;;792.27;723.17;;;-1.10;99.90;;;;;;5015741;28;20198;-84
2022/12/10 03:17:43;;;;;;;780.63;709.13;;;-1.00;99.90;;;;;;5017018;28;20543;-85
2022/12/10 03:20:13;;;;;;;772.83;703.87;;;-0.90;99.90;;;;;;5017344;28;20452;-84
2022/12/10 03:22:43;;;;;;;781.63;710.60;;;-0.80;99.90;;;;;;5015796;28;20855;-84
2022/12/10 03:25:12;;;;;;;774.17;705.93;;;-0.80;99.90;;;;;;5015999;28;20453;-84
2022/12/10 03:27:41;;;;;;;776.80;704.97;;;-0.70;99.90;;;;;;5015467;28;20976;-84
2022/12/10 03:30:09;;;;;;;780.15;706.13;;;-0.70;99.90;;;;;;5014888;28;20981;-84
2022/12/10 03:32:38;;;;;;;781.70;710.00;;;-0.70;99.90;;;;;;5013975;28;20226;-84
2022/12/10 03:35:07;;;;;;;797.13;722.23;;;-0.70;99.90;;;;;;5015328;28;20460;-84
2022/12/10 03:37:35;;;;;;;801.97;728.75;;;-0.60;99.90;;;;;;5015864;28;20519;-84
2022/12/10 03:40:04;;;;;;;795.37;720.53;;;-0.60;99.90;;;;;;5015398;28;20584;-85
2022/12/10 03:42:30;;;;;;;807.07;733.47;;;-0.60;99.90;;;;;;5014068;28;20488;-84
2022/12/10 03:44:57;;;;;;;792.43;720.07;;;-0.60;99.90;;;;;;5014710;28;20463;-84
2022/12/10 03:47:25;;;;;;;795.20;719.90;;;-0.70;99.90;;;;;;5015468;28;20984;-84
2022/12/10 03:49:53;;;;;;;777.85;706.00;;;-0.60;99.90;;;;;;5016127;28;20460;-84
2022/12/10 03:52:19;;;;;;;792.63;721.50;;;-0.60;99.90;;;;;;5015477;28;20214;-84
2022/12/10 03:54:46;;;;;;;796.80;725.47;;;-0.60;99.90;;;;;;5015544;28;20973;-85
2022/12/10 03:57:13;;;;;;;785.97;714.27;;;-0.70;99.90;;;;;;5015433;28;20460;-84
2022/12/10 03:59:40;;;;;;;790.70;717.55;;;-0.70;99.90;;;;;;5015731;28;20456;-84
2022/12/10 04:02:06;;;;;;;789.03;715.17;;;-0.60;99.90;;;;;;5015291;28;20253;-84
2022/12/10 04:04:33;;;;;;;794.37;719.77;;;-0.70;99.90;;;;;;5016170;28;20453;-84
2022/12/10 04:07:01;;;;;;;793.77;719.50;;;-0.60;99.90;;;;;;5015659;28;20452;-83
2022/12/10 04:09:28;;;;;;;790.07;717.57;;;-0.60;99.90;;;;;;5015324;28;20457;-84
2022/12/10 04:11:56;;;;;;;788.53;715.07;;;-0.60;99.90;;;;;;5015962;28;20863;-84
2022/12/10 04:17:08;;;;;;;785.43;712.20;;;-0.60;99.90;;;;;;5014671;28;20496;-84
2022/12/10 04:19:35;;;;;;;781.77;710.53;;;-0.70;99.90;;;;;;5014862;28;20463;-84
2022/12/10 04:27:34;;;;;;;796.13;725.87;;;-0.70;99.90;;;;;;5013692;28;20491;-84
2022/12/10 04:30:01;;;;;;;794.67;725.27;;;-0.70;99.90;;;;;;5013489;28;20453;-84
2022/12/10 04:32:29;;;;;;;791.60;720.57;;;-0.70;99.90;;;;;;5013461;28;20477;-84
2022/12/10 04:34:56;;;;;;;786.27;714.87;;;-0.60;99.90;;;;;;5014261;28;20457;-84
2022/12/10 04:37:27;;;;;;;784.33;714.47;;;-0.60;99.90;;;;;;5014159;28;20454;-85
2022/12/10 04:39:53;;;;;;;776.03;706.30;;;-0.60;99.90;;;;;;5013928;28;20452;-84
2022/12/10 04:42:21;;;;;;;783.22;713.08;;;-0.70;99.90;;;;;;5013417;28;20485;-84
2022/12/10 04:44:48;;;;;;;788.60;716.17;;;-0.70;99.90;;;;;;5017542;28;20202;-84
2022/12/10 04:47:15;;;;;;;778.20;707.37;;;-0.60;99.90;;;;;;5017902;28;20461;-84
2022/12/10 04:49:42;;;;;;;781.28;709.08;;;-0.60;99.90;;;;;;5017572;28;21032;-84
2022/12/10 04:52:12;;;;;;;789.43;720.87;;;-0.70;99.90;;;;;;5017070;28;20229;-84
2022/12/10 04:54:41;;;;;;;788.20;720.33;;;-0.70;99.90;;;;;;5016801;28;20456;-84
2022/12/10 04:57:09;;;;;;;795.47;725.47;;;-0.80;99.90;;;;;;5017062;28;20449;-84
2022/12/10 04:59:36;;;;;;;803.53;733.33;;;-0.70;99.90;;;;;;5017272;28;20484;-85
2022/12/10 05:02:03;;;;;;;796.90;726.58;;;-0.80;99.90;;;;;;5016612;28;20884;-84
2022/12/10 05:04:30;;;;;;;796.55;729.08;;;-0.70;99.90;;;;;;5017488;28;20206;-84
2022/12/10 05:06:56;;;;;;;801.17;732.43;;;-0.70;99.90;;;;;;5016912;28;20203;-84
2022/12/10 05:09:23;;;;;;;800.50;732.60;;;-0.70;99.90;;;;;;5017227;28;20456;-84
2022/12/10 05:11:51;;;;;;;775.87;709.90;;;-0.80;99.90;;;;;;5017283;28;20472;-84
2022/12/10 05:14:18;;;;;;;773.87;708.07;;;-0.70;99.90;;;;;;5017353;28;20453;-84
2022/12/10 05:16:45;;;;;;;780.43;710.93;;;-0.80;99.90;;;;;;5017101;28;20453;-83
2022/12/10 05:19:12;;;;;;;771.40;706.30;;;-0.80;99.90;;;;;;5017574;28;20552;-84
2022/12/10 05:24:23;;;;;;;782.47;717.40;;;-0.90;99.90;;;;;;5016753;28;20439;-85
2022/12/10 05:26:51;;;;;;;776.30;711.00;;;-0.80;99.90;;;;;;5016301;28;20453;-84
2022/12/10 05:29:19;;;;;;;782.03;716.80;;;-0.80;99.90;;;;;;5016809;28;20449;-84
2022/12/10 05:31:45;;;;;;;784.20;720.27;;;-1.00;99.90;;;;;;5016373;28;20469;-84
2022/12/10 05:34:12;;;;;;;771.10;707.33;;;-1.00;99.90;;;;;;5016896;28;20460;-82
2022/12/10 05:36:39;;;;;;;754.10;692.00;;;-1.00;99.90;;;;;;5016161;28;20453;-82
2022/12/10 05:39:06;;;;;;;767.33;704.97;;;-1.10;99.90;;;;;;5016779;28;20476;-83
2022/12/10 05:41:36;;;;;;;768.63;707.13;;;-1.10;99.90;;;;;;5017606;28;21001;-82
2022/12/10 05:44:05;;;;;;;760.38;698.10;;;-1.20;99.90;;;;;;5017886;28;20488;-83
2022/12/10 05:46:34;;;;;;;773.10;710.83;;;-1.40;99.90;;;;;;5016182;28;20198;-83
2022/12/10 05:49:02;;;;;;;754.30;692.95;;;-1.50;99.90;;;;;;5016664;28;20456;-82
2022/12/10 05:51:37;;;;;;;755.72;695.88;;;-1.50;99.90;;;;;;5018741;28;20317;-82
2022/12/10 05:54:05;;;;;;;763.88;703.20;;;-1.60;99.90;;;;;;5020028;28;20266;-83
2022/12/10 05:56:32;;;;;;;767.17;705.63;;;-1.60;99.90;;;;;;5017753;28;20204;-83
2022/12/10 05:59:00;;;;;;;773.10;711.25;;;-1.60;99.90;;;;;;5019182;28;20225;-82
2022/12/10 06:01:30;;;;;;;774.22;710.22;;;-1.70;99.90;;;;;;5020326;28;20222;-82
2022/12/10 06:03:58;;;;;;;762.92;699.05;;;-1.70;99.90;;;;;;5023587;28;20226;-83
2022/12/10 06:06:27;;;;;;;769.08;702.65;;;-1.60;99.90;;;;;;5020051;28;20574;-82
2022/12/10 06:08:57;;;;;;;782.22;715.13;;;-1.50;99.90;;;;;;5019617;28;20205;-82
2022/12/10 06:11:26;;;;;;;774.22;706.78;;;-1.50;99.90;;;;;;5017926;28;20725;-83
2022/12/10 06:13:54;;;;;;;782.50;713.95;;;-1.40;99.90;;;;;;5016960;28;20257;-82
2022/12/10 06:16:21;;;;;;;774.08;704.17;;;-1.30;99.90;;;;;;5018740;28;20693;-82
2022/12/10 06:18:49;;;;;;;776.33;706.37;;;-1.20;99.90;;;;;;5017149;28;20601;-82
2022/12/10 06:21:17;;;;;;;772.30;701.17;;;-1.20;99.90;;;;;;5017660;28;20484;-82
2022/12/10 06:23:44;;;;;;;772.47;703.15;;;-1.10;99.90;;;;;;5018241;28;20220;-83
2022/12/10 06:26:12;;;;;;;776.90;707.28;;;-1.10;99.90;;;;;;5016091;28;20206;-83
2022/12/10 06:28:39;;;;;;;783.13;713.93;;;-1.00;99.90;;;;;;5016762;28;20286;-83
2022/12/10 06:31:06;;;;;;;798.23;726.00;;;-1.00;99.90;;;;;;5015964;28;20505;-82
2022/12/10 06:33:33;;;;;;;791.60;721.60;;;-1.00;99.90;;;;;;5017690;28;20461;-82
2022/12/10 06:36:04;;;;;;;788.93;720.17;;;-1.00;99.90;;;;;;5016904;28;20453;-82
2022/12/10 06:38:31;;;;;;;786.10;715.40;;;-0.90;99.90;;;;;;5015983;28;20457;-81
2022/12/10 06:40:58;;;;;;;785.63;717.23;;;-0.90;99.90;;;;;;5016107;28;20477;-82
2022/12/10 06:43:31;;;;;;;797.50;728.07;;;-0.80;99.90;;;;;;5016604;28;20525;-82
2022/12/10 06:45:58;;;;;;;796.23;726.47;;;-0.90;99.90;;;;;;5016898;28;20922;-82
2022/12/10 06:48:25;;;;;;;788.57;720.20;;;-0.80;99.90;;;;;;5016337;28;20453;-82
2022/12/10 06:50:51;;;;;;;789.53;722.17;;;-0.80;99.90;;;;;;5016984;28;20487;-83
2022/12/10 06:53:20;;;;;;;774.40;707.67;;;-0.80;99.90;;;;;;5016919;28;20449;-82
2022/12/10 06:55:47;;;;;;;775.70;708.27;;;-0.80;99.90;;;;;;5016207;28;20461;-82
2022/12/10 06:58:13;;;;;;;767.72;701.28;;;-0.90;99.90;;;;;;5016506;28;20460;-82
2022/12/10 07:00:40;;;;;;;770.10;706.10;;;-0.80;99.90;;;;;;5016466;28;20209;-83
2022/12/10 07:03:07;;;;;;;779.23;714.83;;;-0.80;99.90;;;;;;5018580;28;20504;-82
2022/12/10 07:05:33;;;;;;;771.67;709.58;;;-0.90;99.90;;;;;;5015366;28;20457;-82
2022/12/10 07:08:00;;;;;;;771.23;708.17;;;-0.90;99.90;;;;;;5018675;28;20202;-82
2022/12/10 07:10:31;;;;;;;781.50;717.27;;;-1.00;99.90;;;;;;5021000;28;20485;-82
2022/12/10 07:12:59;;;;;;;767.73;705.17;;;-0.90;99.90;;;;;;5021643;28;20460;-82
2022/12/10 07:15:28;;;;;;;758.77;696.17;;;-0.90;99.90;;;;;;5018001;28;20465;-81
2022/12/10 07:17:54;;;;;;;759.83;697.65;;;-0.90;99.90;;;;;;5017638;28;20508;-82
2022/12/10 07:20:21;;;;;;;760.20;697.60;;;-0.80;99.90;;;;;;5020031;28;20198;-82
2022/12/10 07:22:49;;;;;;;764.33;703.13;;;-0.90;99.90;;;;;;5019871;28;20484;-83
2022/12/10 07:25:18;;;;;;;767.27;705.43;;;-0.90;99.90;;;;;;5019059;28;20457;-82
2022/12/10 07:27:46;;;;;;;753.70;695.15;;;-0.90;99.90;;;;;;5018837;28;20537;-83
2022/12/10 07:30:13;;;;;;;753.23;694.97;;;-0.90;99.90;;;;;;5021844;28;20221;-82
2022/12/10 07:32:40;;;;;;;754.73;694.27;;;-0.90;99.90;;;;;;5021498;28;20492;-83
2022/12/10 07:35:07;;;;;;;753.03;691.28;;;-0.90;99.90;;;;;;5023760;28;20900;-82
2022/12/10 07:37:34;;;;;;;748.25;691.45;;;-1.00;99.90;;;;;;5020490;28;20234;-83
2022/12/10 07:40:01;;;;;;;756.77;700.00;;;-1.00;99.90;;;;;;5016827;28;20206;-82
2022/12/10 07:42:28;;;;;;;746.28;689.88;;;-1.00;99.90;;;;;;5015911;28;20476;-82
2022/12/10 07:44:56;;;;;;;746.43;688.27;;;-1.00;99.90;;;;;;5016555;28;20218;-83
2022/12/10 07:47:22;;;;;;;732.75;675.58;;;-1.00;99.90;;;;;;5015392;28;20453;-83
2022/12/10 07:49:49;;;;;;;731.50;676.47;;;-1.00;99.90;;;;;;5016565;28;20195;-83
2022/12/10 07:52:16;;;;;;;727.50;673.20;;;-0.90;99.90;;;;;;5024741;28;20220;-82
2022/12/10 07:54:43;;;;;;;730.83;674.10;;;-1.00;99.90;;;;;;5036322;28;20200;-82
2022/12/10 07:57:10;;;;;;;728.92;673.42;;;-1.00;99.90;;;;;;5036183;28;20608;-83
2022/12/10 07:59:38;;;;;;;719.58;664.45;;;-0.90;99.90;;;;;;5035699;28;20194;-83
2022/12/10 08:02:06;;;;;;;730.30;674.50;;;-1.00;99.90;;;;;;5012403;28;20233;-83
2022/12/10 08:04:33;;;;;;;743.42;686.42;;;-0.90;99.90;;;;;;5020401;28;20473;-82
2022/12/10 08:07:03;;;;;;;723.87;668.27;;;-0.90;99.90;;;;;;5023824;28;20226;-86
2022/12/10 08:09:30;;;;;;;735.87;679.27;;;-0.80;99.90;;;;;;5020466;28;20548;-82
2022/12/10 08:11:57;;;;;;;735.33;677.07;;;-0.80;99.90;;;;;;5022721;28;20894;-82
2022/12/10 08:14:24;;;;;;;720.88;665.60;;;-0.80;99.90;;;;;;5022849;28;20544;-82
2022/12/10 08:16:51;;;;;;;725.87;669.83;;;-0.70;99.90;;;;;;5022145;28;20218;-82
2022/12/10 08:19:19;;;;;;;731.50;675.27;;;-0.70;99.90;;;;;;5034910;28;20938;-81
2022/12/10 08:21:46;;;;;;;732.00;675.50;;;-0.70;99.90;;;;;;5045276;28;21027;-84
2022/12/10 08:24:12;;;;;;;730.33;675.37;;;-0.80;99.90;;;;;;5046085;28;20491;-82
2022/12/10 08:26:39;;;;;;;720.80;666.87;;;-0.70;99.90;;;;;;5045573;28;20459;-82
2022/12/10 08:29:06;;;;;;;719.30;664.00;;;-0.70;99.90;;;;;;5046798;28;20538;-82
2022/12/10 08:31:33;;;;;;;730.17;674.53;;;-0.60;99.90;;;;;;5045837;28;20471;-82
2022/12/10 08:34:00;;;;;;;718.90;664.57;;;-0.50;99.90;;;;;;5044925;28;20255;-82
2022/12/10 08:36:28;;;;;;;706.70;654.27;;;-0.50;99.90;;;;;;5044370;28;20452;-81
2022/12/10 08:38:56;;;;;;;702.60;648.88;;;-0.40;99.90;;;;;;5043941;28;20460;-82
2022/12/10 08:41:23;;;;;;;690.43;639.80;;;-0.40;99.90;;;;;;5045531;28;20222;-82
2022/12/10 08:43:53;;;;;;;687.60;636.30;;;-0.30;99.90;;;;;;5045856;28;20923;-82
2022/12/10 08:46:20;;;;;;;698.45;646.55;;;-0.40;99.90;;;;;;5045039;28;20453;-82
2022/12/10 08:48:46;;;;;;;684.53;633.53;;;-0.20;99.90;;;;;;5045088;28;20229;-83
2022/12/10 08:51:17;;;;;;;661.87;615.63;;;-0.30;99.90;;;;;;5051892;28;180518;-82
2022/12/10 08:53:45;;;;;;;665.40;616.10;;;-0.20;99.90;;;;;;5065194;28;20483;-82
2022/12/10 08:56:12;;;;;;;661.83;615.00;;;-0.20;99.90;;;;;;5066155;28;20458;-82
2022/12/10 08:58:40;;;;;;;652.90;606.00;;;-0.20;99.90;;;;;;5065626;28;20526;-83
2022/12/10 09:01:09;;;;;;;641.07;595.50;;;-0.10;99.90;;;;;;5065499;28;20474;-83
2022/12/10 09:03:36;;;;;;;625.63;583.57;;;-0.10;99.90;;;;;;5065063;28;20503;-83
2022/12/10 09:06:05;;;;;;;621.50;578.70;;;-0.20;99.90;;;;;;5065959;28;20467;-82
2022/12/10 09:08:35;;;;;;;596.40;556.80;;;-0.10;99.90;;;;;;5066023;28;20543;-82
2022/12/10 09:11:08;;;;;;;616.37;573.87;;;-0.10;99.90;;;;;;5064874;28;20475;-82
2022/12/10 09:13:35;;;;;;;608.30;568.97;;;0.00;99.90;;;;;;5065526;28;20645;-81
2022/12/10 09:16:02;;;;;;;617.37;576.77;;;-0.10;99.90;;;;;;5065707;28;20456;-82
2022/12/10 09:18:29;;;;;;;567.17;532.05;;;0.00;99.90;;;;;;5065286;28;20486;-83
2022/12/10 09:20:56;;;;;;;568.80;533.83;;;0.00;99.90;;;;;;5064749;28;20372;-83
2022/12/10 09:23:23;;;;;;;559.80;524.77;;;0.10;99.90;;;;;;5066864;28;20479;-83
2022/12/10 09:25:50;;;;;;;562.60;529.03;;;0.10;99.90;;;;;;5066509;28;20475;-83
2022/12/10 09:28:18;;;;;;;530.87;498.53;;;0.20;99.90;;;;;;5065997;28;20473;-83
2022/12/10 09:30:45;;;;;;;497.17;467.67;;;0.30;99.90;;;;;;5063817;28;20455;-83
2022/12/10 09:33:15;;;;;;;450.70;424.03;;;0.30;99.90;;;;;;5066309;28;20467;-83
2022/12/10 09:35:42;;;;;;;469.97;442.67;;;0.40;99.90;;;;;;5065704;28;20452;-83
2022/12/10 09:38:09;;;;;;;459.87;434.07;;;0.50;99.90;;;;;;5065877;28;20455;-83
2022/12/10 09:40:42;;;;;;;412.53;386.50;;;0.60;99.90;;;;;;5065612;28;20510;-82
2022/12/10 09:43:17;;;;;;;373.20;350.80;;;0.60;99.90;;;;;;5066493;28;20455;-82
2022/12/10 09:45:53;;;;;;;354.17;333.07;;;0.70;99.90;;;;;;5066093;28;20455;-83
2022/12/10 09:48:27;;;;;;;285.87;269.00;;;0.70;99.90;;;;;;5065904;28;20465;-83
2022/12/10 09:51:00;;;;;;;263.53;245.40;;;0.70;99.90;;;;;;5065239;28;20558;-82
2022/12/10 09:53:30;;;;;;;205.57;189.63;;;0.80;99.90;;;;;;5065422;28;20455;-82
2022/12/10 09:55:59;;;;;;;167.20;152.20;;;0.90;99.90;;;;;;5065642;28;20535;-82
2022/12/10 09:58:27;;;;;;;154.70;140.87;;;0.90;99.90;;;;;;5065609;28;20448;-82
2022/12/10 10:01:00;;;;;;;147.57;135.80;;;1.10;99.90;;;;;;5065385;28;20471;-82
2022/12/10 10:03:27;;;;;;;144.57;131.27;;;1.10;99.90;;;;;;5064501;28;20461;-82
2022/12/10 10:05:56;;;;;;;124.83;113.17;;;1.10;99.90;;;;;;5065261;28;20459;-82
2022/12/10 10:08:30;;;;;;;93.77;80.33;;;1.20;99.90;;;;;;5064961;28;20451;-82
2022/12/10 10:10:57;;;;;;;97.10;73.10;;;1.20;99.90;;;;;;5064850;28;20490;-82
2022/12/10 10:13:32;;;;;;;100.40;70.87;;;1.30;99.90;;;;;;5064811;28;20462;-82
2022/12/10 10:16:18;;;;;;;90.45;40.88;;;1.40;99.90;;;;;;5063634;28;20458;-82
2022/12/10 10:18:47;;;;;;;78.77;52.93;;;1.40;99.90;;;;;;5063734;28;20567;-81
2022/12/10 10:21:21;;;;;;;86.27;47.77;;;1.40;99.90;;;;;;5063152;28;20481;-81
2022/12/10 10:23:48;;;;;;;87.70;46.13;;;1.50;99.90;;;;;;5064251;28;20473;-83
2022/12/10 10:26:15;;;;;;;80.43;40.77;;;1.60;99.90;;;;;;5063035;28;20465;-82
2022/12/10 10:28:43;;;;;;;68.37;33.23;;;1.70;99.90;;;;;;5064699;28;20543;-82
2022/12/10 10:31:19;;;;;;;66.10;32.10;;;1.80;99.90;;;;;;5063413;28;21018;-82
2022/12/10 10:33:50;;;;;;;76.20;32.50;;;1.80;99.90;;;;;;5064472;28;20455;-82
2022/12/10 10:36:17;;;;;;;75.07;32.37;;;1.80;99.90;;;;;;5064699;28;20880;-82
2022/12/10 10:38:49;;;;;;;104.20;39.63;;;1.50;99.90;;;;;;5064130;28;20458;-82
2022/12/10 10:41:16;;;;;;;74.90;38.00;;;1.60;99.90;;;;;;5063154;28;20509;-82
2022/12/10 10:43:45;;;;;;;83.07;34.40;;;1.60;99.90;;;;;;5063640;28;20468;-81
2022/12/10 10:46:15;;;;;;;57.57;27.13;;;1.70;99.90;;;;;;5064302;28;21047;-82
2022/12/10 10:48:42;;;;;;;99.67;40.20;;;1.70;99.90;;;;;;5064480;28;20447;-82
2022/12/10 10:51:16;;;;;;;87.13;36.93;;;1.60;99.90;;;;;;5060658;28;20473;-82
2022/12/10 10:53:45;;;;;;;88.90;39.03;;;1.70;99.90;;;;;;5031906;28;20464;-82
2022/12/10 10:56:16;;;;;;;71.97;50.90;;;1.70;99.90;;;;;;5043375;28;20451;-82
2022/12/10 10:58:51;;;;;;;83.60;47.73;;;1.50;99.90;;;;;;5042972;28;20488;-82
2022/12/10 11:01:20;;;;;;;81.47;49.67;;;1.60;99.90;;;;;;5041925;28;20472;-81
2022/12/10 11:03:50;;;;;;;76.17;38.73;;;1.60;99.90;;;;;;5042897;28;20459;-82
2022/12/10 11:06:17;;;;;;;88.47;36.60;;;1.70;99.90;;;;;;5042451;28;20452;-82
2022/12/10 11:08:47;;;;;;;85.20;34.70;;;1.80;99.90;;;;;;5042914;28;20456;-82
2022/12/10 11:11:21;;;;;;;84.50;35.07;;;1.90;99.90;;;;;;5041758;28;20506;-82
2022/12/10 11:13:48;;;;;;;79.60;33.40;;;2.00;99.90;;;;;;5042953;28;20456;-82
2022/12/10 11:16:21;;;;;;;73.93;33.37;;;2.00;99.90;;;;;;5042032;28;20451;-82
2022/12/10 11:19:01;;;;;;;75.97;31.37;;;2.00;99.90;;;;;;5042129;28;20456;-82
2022/12/10 11:21:29;;;;;;;79.43;31.07;;;1.90;99.90;;;;;;5041313;28;20841;-81
2022/12/10 11:23:58;;;;;;;71.23;30.60;;;2.00;99.90;;;;;;5042892;28;20831;-82
2022/12/10 11:26:56;;;;;;;74.93;32.87;;;2.00;99.90;;;;;;5042135;28;20961;-83
2022/12/10 11:29:35;;;;;;;77.73;31.17;;;2.10;99.90;;;;;;5041679;28;20909;-82
2022/12/10 11:32:20;;;;;;;72.07;29.90;;;2.20;99.90;;;;;;5042650;28;21000;-84
2022/12/10 11:34:59;;;;;;;60.27;23.60;;;2.30;99.90;;;;;;5042532;28;20452;-84
2022/12/10 11:37:33;;;;;;;69.73;28.50;;;2.20;99.90;;;;;;5018428;28;20464;-84
2022/12/10 11:40:15;;;;;;;61.93;25.70;;;2.10;99.90;;;;;;5023940;28;20463;-82
2022/12/10 11:42:56;;;;;;;54.83;25.87;;;2.20;99.90;;;;;;5033916;28;20486;-82
2022/12/10 11:45:29;;;;;;;65.90;32.40;;;2.10;99.90;;;;;;5049919;28;20479;-84
2022/12/10 11:48:08;;;;;;;53.57;25.10;;;2.10;99.90;;;;;;5032466;28;20456;-84
2022/12/10 11:50:43;;;;;;;50.77;21.67;;;2.10;99.90;;;;;;5032422;28;20502;-84
2022/12/10 11:53:26;;;;;;;46.63;22.07;;;2.30;99.90;;;;;;5032423;28;20489;-82
2022/12/10 11:56:02;;;;;;;53.00;24.00;;;2.20;99.90;;;;;;5032843;28;20551;-86
2022/12/10 11:58:43;;;;;;;65.90;26.27;;;2.50;99.90;;;;;;5033039;28;20452;-85
2022/12/10 12:01:17;;;;;;;39.50;19.70;;;2.90;99.90;;;;;;5037190;28;20476;-84
2022/12/10 12:04:25;;;;;;;45.40;21.90;;;3.50;99.90;;;;;;5042896;28;20547;-84
2022/12/10 12:07:05;;;;;;;36.87;21.07;;;3.80;99.90;;;;;;5024861;28;20455;-85
2022/12/10 12:09:46;;;;;;;40.37;18.50;;;3.80;99.90;;;;;;5044428;28;20462;-84
2022/12/10 12:12:25;;;;;;;38.57;21.07;;;3.80;99.90;;;;;;5043519;28;20475;-82
2022/12/10 12:14:56;;;;;;;34.60;18.20;;;4.00;99.90;;;;;;5043745;28;20447;-82
2022/12/10 12:17:26;;;;;;;37.80;19.33;;;4.00;99.90;;;;;;5043063;28;20448;-82
2022/12/10 12:19:58;;;;;;;37.43;17.80;;;4.00;99.90;;;;;;5043340;28;20531;-82
2022/12/10 12:22:28;;;;;;;39.83;18.27;;;4.20;99.90;;;;;;5037456;28;20919;-84
2022/12/10 12:24:59;;;;;;;34.63;19.77;;;4.10;99.90;;;;;;5041100;28;20559;-83
2022/12/10 12:27:31;;;;;;;37.57;20.20;;;4.10;99.90;;;;;;5039676;28;20941;-82
2022/12/10 12:30:05;;;;;;;40.87;22.40;;;4.00;99.90;;;;;;5021932;28;20924;-84
2022/12/10 12:32:41;;;;;;;47.63;21.57;;;3.70;99.90;;;;;;5022434;28;20861;-85
2022/12/10 12:35:15;;;;;;;39.23;21.23;;;3.50;99.90;;;;;;5030601;28;20459;-85